sensor_id;sensor_type;location;lat;lon;timestamp;temperature;humidity
21805;DHT22;11064;47.102;15.452;2023-08-08T04:01:24;9.00;99.90
21805;DHT22;11064;47.102;15.452;2023-08-08T04:03:49;8.90;99.90
21805;DHT22;11064;47.102;15.452;2023-08-08T04:06:15;8.90;99.90
21805;DHT22;11064;47.102;15.452;2023-08-08T04:08:41;8.90;99.90
21805;DHT22;11064;47.102;15.452;2023-08-08T04:11:07;8.90;99.90
21805;DHT22;11064;47.102;15.452;2023-08-08T04:13:33;9.00;99.90
21805;DHT22;11064;47.102;15.452;2023-08-08T04:16:00;9.00;99.90
21805;DHT22;11064;47.102;15.452;2023-08-08T04:18:25;9.10;99.90
21805;DHT22;11064;47.102;15.452;2023-08-08T04:20:51;9.10;99.90
21805;DHT22;11064;47.102;15.452;2023-08-08T04:23:17;9.10;99.90
21805;DHT22;11064;47.102;15.452;2023-08-08T04:25:43;9.10;99.90
21805;DHT22;11064;47.102;15.452;2023-08-08T04:28:09;9.10;99.90
21805;DHT22;11064;47.102;15.452;2023-08-08T04:30:35;9.10;99.90
21805;DHT22;11064;47.102;15.452;2023-08-08T04:33:01;9.10;99.90
21805;DHT22;11064;47.102;15.452;2023-08-08T04:35:27;9.00;99.90
21805;DHT22;11064;47.102;15.452;2023-08-08T04:37:53;9.00;99.90
21805;DHT22;11064;47.102;15.452;2023-08-08T04:40:18;9.00;99.90
21805;DHT22;11064;47.102;15.452;2023-08-08T04:42:44;9.00;99.90
21805;DHT22;11064;47.102;15.452;2023-08-08T04:45:10;9.10;99.90
21805;DHT22;11064;47.102;15.452;2023-08-08T04:47:36;9.20;99.90
21805;DHT22;11064;47.102;15.452;2023-08-08T04:50:02;9.30;99.90
21805;DHT22;11064;47.102;15.452;2023-08-08T04:52:28;9.50;99.90
21805;DHT22;11064;47.102;15.452;2023-08-08T04:54:54;9.60;99.90
21805;DHT22;11064;47.102;15.452;2023-08-08T04:57:19;9.80;99.90
21805;DHT22;11064;47.102;15.452;2023-08-08T04:59:45;9.90;99.90
21805;DHT22;11064;47.102;15.452;2023-08-08T05:02:11;10.00;99.90
21805;DHT22;11064;47.102;15.452;2023-08-08T05:04:37;10.10;99.90
21805;DHT22;11064;47.102;15.452;2023-08-08T05:07:03;10.50;99.90
21805;DHT22;11064;47.102;15.452;2023-08-08T05:09:29;11.40;99.90
21805;DHT22;11064;47.102;15.452;2023-08-08T05:11:55;12.50;99.90
21805;DHT22;11064;47.102;15.452;2023-08-08T05:14:21;14.30;99.90
21805;DHT22;11064;47.102;15.452;2023-08-08T05:16:46;15.60;99.90
21805;DHT22;11064;47.102;15.452;2023-08-08T05:19:12;16.20;98.80
21805;DHT22;11064;47.102;15.452;2023-08-08T05:21:39;17.00;96.70
21805;DHT22;11064;47.102;15.452;2023-08-08T05:24:05;16.60;96.00
21805;DHT22;11064;47.102;15.452;2023-08-08T05:26:30;16.50;96.40
21805;DHT22;11064;47.102;15.452;2023-08-08T05:28:56;16.70;95.30
21805;DHT22;11064;47.102;15.452;2023-08-08T05:31:22;17.80;93.50
21805;DHT22;11064;47.102;15.452;2023-08-08T05:33:51;18.40;89.80
21805;DHT22;11064;47.102;15.452;2023-08-08T05:36:17;18.70;88.00
21805;DHT22;11064;47.102;15.452;2023-08-08T05:38:42;18.00;88.90
21805;DHT22;11064;47.102;15.452;2023-08-08T05:41:08;18.20;89.00
21805;DHT22;11064;47.102;15.452;2023-08-08T05:43:34;18.50;85.80
21805;DHT22;11064;47.102;15.452;2023-08-08T05:46:01;17.90;88.40
21805;DHT22;11064;47.102;15.452;2023-08-08T05:48:27;17.40;90.30
21805;DHT22;11064;47.102;15.452;2023-08-08T05:50:53;16.20;93.20
21805;DHT22;11064;47.102;15.452;2023-08-08T05:53:19;15.00;95.20
21805;DHT22;11064;47.102;15.452;2023-08-08T05:55:44;14.50;98.90
21805;DHT22;11064;47.102;15.452;2023-08-08T05:58:10;14.10;99.90
21805;DHT22;11064;47.102;15.452;2023-08-08T06:00:36;13.70;99.90
21805;DHT22;11064;47.102;15.452;2023-08-08T06:03:02;13.60;99.90
21805;DHT22;11064;47.102;15.452;2023-08-08T06:05:28;13.40;99.90
21805;DHT22;11064;47.102;15.452;2023-08-08T06:07:54;13.40;99.90
21805;DHT22;11064;47.102;15.452;2023-08-08T06:10:21;13.20;99.90
21805;DHT22;11064;47.102;15.452;2023-08-08T06:12:47;13.00;99.90
21805;DHT22;11064;47.102;15.452;2023-08-08T06:15:13;13.10;99.90
21805;DHT22;11064;47.102;15.452;2023-08-08T06:17:39;13.30;99.90
21805;DHT22;11064;47.102;15.452;2023-08-08T06:20:06;13.50;99.90
21805;DHT22;11064;47.102;15.452;2023-08-08T06:22:36;13.60;99.90
21805;DHT22;11064;47.102;15.452;2023-08-08T06:25:02;13.60;99.90
21805;DHT22;11064;47.102;15.452;2023-08-08T06:27:29;13.90;99.90
21805;DHT22;11064;47.102;15.452;2023-08-08T06:29:56;14.10;99.90
21805;DHT22;11064;47.102;15.452;2023-08-08T06:32:21;14.40;99.90
21805;DHT22;11064;47.102;15.452;2023-08-08T06:34:47;14.60;99.90
21805;DHT22;11064;47.102;15.452;2023-08-08T06:37:13;14.60;99.90
21805;DHT22;11064;47.102;15.452;2023-08-08T06:39:39;14.80;99.90
21805;DHT22;11064;47.102;15.452;2023-08-08T06:42:05;15.10;99.90
21805;DHT22;11064;47.102;15.452;2023-08-08T06:44:44;15.40;99.90
21805;DHT22;11064;47.102;15.452;2023-08-08T06:47:11;15.60;99.90
21805;DHT22;11064;47.102;15.452;2023-08-08T06:49:37;15.60;99.90
21805;DHT22;11064;47.102;15.452;2023-08-08T06:52:04;15.80;99.90
21805;DHT22;11064;47.102;15.452;2023-08-08T06:54:31;15.80;99.90
21805;DHT22;11064;47.102;15.452;2023-08-08T06:56:57;16.00;99.90
21805;DHT22;11064;47.102;15.452;2023-08-08T06:59:24;16.30;99.90
21805;DHT22;11064;47.102;15.452;2023-08-08T07:01:50;16.50;99.90
21805;DHT22;11064;47.102;15.452;2023-08-08T07:04:17;16.60;99.90
21805;DHT22;11064;47.102;15.452;2023-08-08T07:06:44;16.70;99.90
21805;DHT22;11064;47.102;15.452;2023-08-08T07:09:12;17.00;99.90
21805;DHT22;11064;47.102;15.452;2023-08-08T07:11:40;17.50;99.90
21805;DHT22;11064;47.102;15.452;2023-08-08T07:14:06;17.70;97.50
21805;DHT22;11064;47.102;15.452;2023-08-08T07:16:32;17.90;96.10
21805;DHT22;11064;47.102;15.452;2023-08-08T07:18:58;18.10;95.40
21805;DHT22;11064;47.102;15.452;2023-08-08T07:21:24;18.30;95.20
21805;DHT22;11064;47.102;15.452;2023-08-08T07:23:50;18.50;93.60
21805;DHT22;11064;47.102;15.452;2023-08-08T07:26:15;18.80;93.00
21805;DHT22;11064;47.102;15.452;2023-08-08T07:28:41;18.80;91.50
21805;DHT22;11064;47.102;15.452;2023-08-08T07:31:07;18.80;90.50
21805;DHT22;11064;47.102;15.452;2023-08-08T07:33:33;18.70;91.60
21805;DHT22;11064;47.102;15.452;2023-08-08T07:35:59;18.80;89.90
21805;DHT22;11064;47.102;15.452;2023-08-08T07:38:25;19.10;87.50
21805;DHT22;11064;47.102;15.452;2023-08-08T07:40:51;19.40;88.00
21805;DHT22;11064;47.102;15.452;2023-08-08T07:43:16;19.40;87.50
21805;DHT22;11064;47.102;15.452;2023-08-08T07:45:43;19.40;91.50
21805;DHT22;11064;47.102;15.452;2023-08-08T07:48:08;19.20;90.10
21805;DHT22;11064;47.102;15.452;2023-08-08T07:50:34;19.10;87.40
21805;DHT22;11064;47.102;15.452;2023-08-08T07:53:00;19.30;87.40
21805;DHT22;11064;47.102;15.452;2023-08-08T07:55:26;19.10;90.40
21805;DHT22;11064;47.102;15.452;2023-08-08T07:57:52;19.00;92.30
21805;DHT22;11064;47.102;15.452;2023-08-08T08:00:18;19.00;85.40
21805;DHT22;11064;47.102;15.452;2023-08-08T08:02:45;19.00;84.90
21805;DHT22;11064;47.102;15.452;2023-08-08T08:05:12;19.00;89.70
21805;DHT22;11064;47.102;15.452;2023-08-08T08:07:38;18.80;88.50
21805;DHT22;11064;47.102;15.452;2023-08-08T08:10:06;18.90;84.10
21805;DHT22;11064;47.102;15.452;2023-08-08T08:12:33;18.90;89.10
21805;DHT22;11064;47.102;15.452;2023-08-08T08:14:59;19.00;91.20
21805;DHT22;11064;47.102;15.452;2023-08-08T08:17:25;19.00;92.10
21805;DHT22;11064;47.102;15.452;2023-08-08T08:19:53;19.00;91.20
21805;DHT22;11064;47.102;15.452;2023-08-08T08:22:19;18.90;87.10
21805;DHT22;11064;47.102;15.452;2023-08-08T08:24:45;19.10;91.00
21805;DHT22;11064;47.102;15.452;2023-08-08T08:27:12;19.20;91.90
21805;DHT22;11064;47.102;15.452;2023-08-08T08:29:38;19.30;91.20
21805;DHT22;11064;47.102;15.452;2023-08-08T08:32:04;19.40;90.60
21805;DHT22;11064;47.102;15.452;2023-08-08T08:34:30;19.50;90.10
21805;DHT22;11064;47.102;15.452;2023-08-08T08:36:56;19.50;85.80
21805;DHT22;11064;47.102;15.452;2023-08-08T08:39:22;19.50;88.40
21805;DHT22;11064;47.102;15.452;2023-08-08T08:41:52;19.50;91.80
21805;DHT22;11064;47.102;15.452;2023-08-08T08:44:21;19.60;87.10
21805;DHT22;11064;47.102;15.452;2023-08-08T08:46:48;19.50;91.80
21805;DHT22;11064;47.102;15.452;2023-08-08T08:49:17;19.60;90.40
21805;DHT22;11064;47.102;15.452;2023-08-08T08:51:44;19.50;88.20
21805;DHT22;11064;47.102;15.452;2023-08-08T08:54:11;19.70;87.00
21805;DHT22;11064;47.102;15.452;2023-08-08T08:56:37;19.60;85.80
21805;DHT22;11064;47.102;15.452;2023-08-08T08:59:03;19.70;87.90
21805;DHT22;11064;47.102;15.452;2023-08-08T09:01:29;19.70;88.80
21805;DHT22;11064;47.102;15.452;2023-08-08T09:03:55;19.70;90.20
21805;DHT22;11064;47.102;15.452;2023-08-08T09:06:23;19.60;82.40
21805;DHT22;11064;47.102;15.452;2023-08-08T09:08:51;19.50;86.40
21805;DHT22;11064;47.102;15.452;2023-08-08T09:11:17;19.80;90.00
21805;DHT22;11064;47.102;15.452;2023-08-08T09:13:43;19.70;87.80
21805;DHT22;11064;47.102;15.452;2023-08-08T09:16:09;19.70;89.70
21805;DHT22;11064;47.102;15.452;2023-08-08T09:18:35;19.70;91.70
21805;DHT22;11064;47.102;15.452;2023-08-08T09:21:05;19.60;91.40
21805;DHT22;11064;47.102;15.452;2023-08-08T09:23:31;19.60;92.10
21805;DHT22;11064;47.102;15.452;2023-08-08T09:25:57;19.40;90.40
21805;DHT22;11064;47.102;15.452;2023-08-08T09:28:22;19.10;90.00
21805;DHT22;11064;47.102;15.452;2023-08-08T09:30:49;18.90;89.50
21805;DHT22;11064;47.102;15.452;2023-08-08T09:33:18;18.60;92.40
21805;DHT22;11064;47.102;15.452;2023-08-08T09:35:43;18.50;93.00
21805;DHT22;11064;47.102;15.452;2023-08-08T09:38:10;18.40;92.20
21805;DHT22;11064;47.102;15.452;2023-08-08T09:40:36;18.50;93.20
21805;DHT22;11064;47.102;15.452;2023-08-08T09:43:02;18.70;92.90
21805;DHT22;11064;47.102;15.452;2023-08-08T09:45:36;19.00;91.90
21805;DHT22;11064;47.102;15.452;2023-08-08T09:48:05;19.00;91.20
21805;DHT22;11064;47.102;15.452;2023-08-08T09:50:33;18.90;91.80
21805;DHT22;11064;47.102;15.452;2023-08-08T09:53:01;18.80;91.10
21805;DHT22;11064;47.102;15.452;2023-08-08T09:55:28;18.70;90.20
21805;DHT22;11064;47.102;15.452;2023-08-08T09:57:57;19.10;92.50
21805;DHT22;11064;47.102;15.452;2023-08-08T10:00:26;19.60;94.00
21805;DHT22;11064;47.102;15.452;2023-08-08T10:02:53;20.10;93.70
21805;DHT22;11064;47.102;15.452;2023-08-08T10:05:19;20.60;92.90
21805;DHT22;11064;47.102;15.452;2023-08-08T10:07:46;20.70;89.80
21805;DHT22;11064;47.102;15.452;2023-08-08T10:10:12;21.00;90.40
21805;DHT22;11064;47.102;15.452;2023-08-08T10:12:39;21.20;85.10
21805;DHT22;11064;47.102;15.452;2023-08-08T10:15:07;21.00;79.70
21805;DHT22;11064;47.102;15.452;2023-08-08T10:17:38;21.40;90.30
21805;DHT22;11064;47.102;15.452;2023-08-08T10:20:05;21.40;82.20
21805;DHT22;11064;47.102;15.452;2023-08-08T10:22:43;21.80;87.50
21805;DHT22;11064;47.102;15.452;2023-08-08T10:25:18;21.90;81.90
21805;DHT22;11064;47.102;15.452;2023-08-08T10:27:44;22.10;82.60
21805;DHT22;11064;47.102;15.452;2023-08-08T10:30:10;22.20;78.70
21805;DHT22;11064;47.102;15.452;2023-08-08T10:32:44;22.20;79.20
21805;DHT22;11064;47.102;15.452;2023-08-08T10:35:12;22.10;80.20
21805;DHT22;11064;47.102;15.452;2023-08-08T10:37:38;22.20;76.20
21805;DHT22;11064;47.102;15.452;2023-08-08T10:40:06;22.20;81.60
21805;DHT22;11064;47.102;15.452;2023-08-08T10:42:43;22.10;78.90
21805;DHT22;11064;47.102;15.452;2023-08-08T10:45:13;22.30;75.50
21805;DHT22;11064;47.102;15.452;2023-08-08T10:47:40;22.40;76.80
21805;DHT22;11064;47.102;15.452;2023-08-08T10:50:16;22.50;74.90
21805;DHT22;11064;47.102;15.452;2023-08-08T10:55:26;22.60;69.80
21805;DHT22;11064;47.102;15.452;2023-08-08T10:58:09;22.60;77.00
21805;DHT22;11064;47.102;15.452;2023-08-08T11:00:37;22.70;77.60
21805;DHT22;11064;47.102;15.452;2023-08-08T11:03:07;22.70;71.10
21805;DHT22;11064;47.102;15.452;2023-08-08T11:05:36;22.60;76.90
21805;DHT22;11064;47.102;15.452;2023-08-08T11:08:04;22.50;66.70
21805;DHT22;11064;47.102;15.452;2023-08-08T11:10:39;22.20;69.80
21805;DHT22;11064;47.102;15.452;2023-08-08T11:13:07;22.20;76.70
21805;DHT22;11064;47.102;15.452;2023-08-08T11:15:34;22.20;76.20
21805;DHT22;11064;47.102;15.452;2023-08-08T11:18:00;22.40;72.90
21805;DHT22;11064;47.102;15.452;2023-08-08T11:20:32;22.40;73.60
21805;DHT22;11064;47.102;15.452;2023-08-08T11:22:58;22.40;76.60
21805;DHT22;11064;47.102;15.452;2023-08-08T11:25:29;22.40;73.00
21805;DHT22;11064;47.102;15.452;2023-08-08T11:27:56;22.50;78.00
21805;DHT22;11064;47.102;15.452;2023-08-08T11:30:24;22.50;69.20
21805;DHT22;11064;47.102;15.452;2023-08-08T11:32:53;22.40;74.30
21805;DHT22;11064;47.102;15.452;2023-08-08T11:35:23;22.20;74.10
21805;DHT22;11064;47.102;15.452;2023-08-08T11:37:49;22.40;78.10
21805;DHT22;11064;47.102;15.452;2023-08-08T11:40:16;22.30;74.20
21805;DHT22;11064;47.102;15.452;2023-08-08T11:42:43;22.40;71.80
21805;DHT22;11064;47.102;15.452;2023-08-08T11:45:13;22.50;72.00
21805;DHT22;11064;47.102;15.452;2023-08-08T11:47:39;22.80;76.00
21805;DHT22;11064;47.102;15.452;2023-08-08T11:50:07;22.90;70.10
21805;DHT22;11064;47.102;15.452;2023-08-08T11:52:40;23.00;75.10
21805;DHT22;11064;47.102;15.452;2023-08-08T11:55:08;23.10;73.70
21805;DHT22;11064;47.102;15.452;2023-08-08T11:57:36;23.30;73.50
21805;DHT22;11064;47.102;15.452;2023-08-08T12:00:07;23.50;70.40
21805;DHT22;11064;47.102;15.452;2023-08-08T12:02:34;23.40;72.00
21805;DHT22;11064;47.102;15.452;2023-08-08T12:05:08;23.70;72.40
21805;DHT22;11064;47.102;15.452;2023-08-08T12:07:36;24.50;67.30
21805;DHT22;11064;47.102;15.452;2023-08-08T12:10:04;24.90;67.50
21805;DHT22;11064;47.102;15.452;2023-08-08T12:12:33;25.20;66.80
21805;DHT22;11064;47.102;15.452;2023-08-08T12:15:07;24.90;66.90
21805;DHT22;11064;47.102;15.452;2023-08-08T12:17:34;25.30;65.90
21805;DHT22;11064;47.102;15.452;2023-08-08T12:20:04;25.70;66.80
21805;DHT22;11064;47.102;15.452;2023-08-08T12:22:31;26.00;62.40
21805;DHT22;11064;47.102;15.452;2023-08-08T12:24:57;26.40;63.00
21805;DHT22;11064;47.102;15.452;2023-08-08T12:27:23;26.40;60.40
21805;DHT22;11064;47.102;15.452;2023-08-08T12:29:49;26.50;57.40
21805;DHT22;11064;47.102;15.452;2023-08-08T12:32:15;26.60;58.60
21805;DHT22;11064;47.102;15.452;2023-08-08T12:34:40;26.50;59.90
21805;DHT22;11064;47.102;15.452;2023-08-08T12:37:06;26.30;60.30
21805;DHT22;11064;47.102;15.452;2023-08-08T12:39:33;26.20;59.40
21805;DHT22;11064;47.102;15.452;2023-08-08T12:41:58;25.80;62.10
21805;DHT22;11064;47.102;15.452;2023-08-08T12:44:24;25.70;61.20
21805;DHT22;11064;47.102;15.452;2023-08-08T12:46:50;25.50;63.10
21805;DHT22;11064;47.102;15.452;2023-08-08T12:49:16;24.90;62.40
21805;DHT22;11064;47.102;15.452;2023-08-08T12:51:42;24.50;64.80
21805;DHT22;11064;47.102;15.452;2023-08-08T12:54:08;24.50;66.50
21805;DHT22;11064;47.102;15.452;2023-08-08T12:56:33;24.40;65.50
21805;DHT22;11064;47.102;15.452;2023-08-08T12:58:59;24.70;63.40
21805;DHT22;11064;47.102;15.452;2023-08-08T13:01:25;25.20;61.90
21805;DHT22;11064;47.102;15.452;2023-08-08T13:03:51;25.50;62.70
21805;DHT22;11064;47.102;15.452;2023-08-08T13:06:17;25.80;60.10
21805;DHT22;11064;47.102;15.452;2023-08-08T13:08:43;26.00;57.40
21805;DHT22;11064;47.102;15.452;2023-08-08T13:11:09;25.70;61.10
21805;DHT22;11064;47.102;15.452;2023-08-08T13:13:35;26.10;61.70
21805;DHT22;11064;47.102;15.452;2023-08-08T13:16:01;26.10;63.10
21805;DHT22;11064;47.102;15.452;2023-08-08T13:18:27;26.20;61.90
21805;DHT22;11064;47.102;15.452;2023-08-08T13:20:53;26.70;59.40
21805;DHT22;11064;47.102;15.452;2023-08-08T13:23:19;26.90;59.10
21805;DHT22;11064;47.102;15.452;2023-08-08T13:25:45;26.80;59.20
21805;DHT22;11064;47.102;15.452;2023-08-08T13:28:11;26.90;59.30
21805;DHT22;11064;47.102;15.452;2023-08-08T13:30:37;27.10;58.10
21805;DHT22;11064;47.102;15.452;2023-08-08T13:33:03;27.30;56.10
21805;DHT22;11064;47.102;15.452;2023-08-08T13:35:29;27.20;57.40
21805;DHT22;11064;47.102;15.452;2023-08-08T13:37:56;26.80;59.50
21805;DHT22;11064;47.102;15.452;2023-08-08T13:40:22;26.90;58.90
21805;DHT22;11064;47.102;15.452;2023-08-08T13:42:47;26.70;56.70
21805;DHT22;11064;47.102;15.452;2023-08-08T13:45:20;26.90;55.20
21805;DHT22;11064;47.102;15.452;2023-08-08T13:47:47;27.00;57.10
21805;DHT22;11064;47.102;15.452;2023-08-08T13:50:14;26.70;55.50
21805;DHT22;11064;47.102;15.452;2023-08-08T13:52:40;26.30;56.80
21805;DHT22;11064;47.102;15.452;2023-08-08T13:55:07;25.90;58.40
21805;DHT22;11064;47.102;15.452;2023-08-08T13:57:34;25.70;61.90
21805;DHT22;11064;47.102;15.452;2023-08-08T14:00:01;25.70;59.10
21805;DHT22;11064;47.102;15.452;2023-08-08T14:02:27;25.90;58.70
21805;DHT22;11064;47.102;15.452;2023-08-08T14:04:53;25.80;58.60
21805;DHT22;11064;47.102;15.452;2023-08-08T14:07:19;25.70;58.60
21805;DHT22;11064;47.102;15.452;2023-08-08T14:09:44;26.10;60.10
21805;DHT22;11064;47.102;15.452;2023-08-08T14:12:10;25.90;57.80
21805;DHT22;11064;47.102;15.452;2023-08-08T14:14:37;25.70;59.90
21805;DHT22;11064;47.102;15.452;2023-08-08T14:17:03;25.80;60.00
21805;DHT22;11064;47.102;15.452;2023-08-08T14:19:28;26.00;59.90
21805;DHT22;11064;47.102;15.452;2023-08-08T14:21:54;25.70;59.90
21805;DHT22;11064;47.102;15.452;2023-08-08T14:24:20;25.80;59.60
21805;DHT22;11064;47.102;15.452;2023-08-08T14:26:46;25.80;59.40
21805;DHT22;11064;47.102;15.452;2023-08-08T14:29:13;25.90;60.40
21805;DHT22;11064;47.102;15.452;2023-08-08T14:31:38;25.90;59.40
21805;DHT22;11064;47.102;15.452;2023-08-08T14:34:04;25.70;58.50
21805;DHT22;11064;47.102;15.452;2023-08-08T14:36:30;25.70;59.10
21805;DHT22;11064;47.102;15.452;2023-08-08T14:38:56;25.80;59.00
21805;DHT22;11064;47.102;15.452;2023-08-08T14:41:22;25.80;60.70
21805;DHT22;11064;47.102;15.452;2023-08-08T14:43:48;25.80;59.20
21805;DHT22;11064;47.102;15.452;2023-08-08T14:46:13;25.50;58.10
21805;DHT22;11064;47.102;15.452;2023-08-08T14:48:39;25.50;62.20
21805;DHT22;11064;47.102;15.452;2023-08-08T14:51:05;25.50;59.20
21805;DHT22;11064;47.102;15.452;2023-08-08T14:53:31;25.30;59.30
21805;DHT22;11064;47.102;15.452;2023-08-08T14:55:57;25.40;60.20
21805;DHT22;11064;47.102;15.452;2023-08-08T14:58:23;25.20;59.10
21805;DHT22;11064;47.102;15.452;2023-08-08T15:00:49;24.90;60.30
21805;DHT22;11064;47.102;15.452;2023-08-08T15:03:15;24.60;63.30
21805;DHT22;11064;47.102;15.452;2023-08-08T15:05:40;24.40;63.50
21805;DHT22;11064;47.102;15.452;2023-08-08T15:08:06;24.00;63.40
21805;DHT22;11064;47.102;15.452;2023-08-08T15:10:32;23.80;66.00
21805;DHT22;11064;47.102;15.452;2023-08-08T15:12:58;23.70;67.20
21805;DHT22;11064;47.102;15.452;2023-08-08T15:15:24;23.70;68.00
21805;DHT22;11064;47.102;15.452;2023-08-08T15:17:53;23.60;68.00
21805;DHT22;11064;47.102;15.452;2023-08-08T15:20:19;23.60;67.40
21805;DHT22;11064;47.102;15.452;2023-08-08T15:22:45;23.50;68.70
21805;DHT22;11064;47.102;15.452;2023-08-08T15:25:10;23.20;67.90
21805;DHT22;11064;47.102;15.452;2023-08-08T15:27:36;23.10;71.00
21805;DHT22;11064;47.102;15.452;2023-08-08T15:30:03;23.30;69.70
21805;DHT22;11064;47.102;15.452;2023-08-08T15:32:29;23.40;72.10
21805;DHT22;11064;47.102;15.452;2023-08-08T15:34:57;23.40;71.20
21805;DHT22;11064;47.102;15.452;2023-08-08T15:37:23;23.60;70.60
21805;DHT22;11064;47.102;15.452;2023-08-08T15:39:48;23.50;69.80
21805;DHT22;11064;47.102;15.452;2023-08-08T15:42:14;23.50;69.90
21805;DHT22;11064;47.102;15.452;2023-08-08T15:44:40;23.50;71.20
21805;DHT22;11064;47.102;15.452;2023-08-08T15:47:06;23.40;72.50
21805;DHT22;11064;47.102;15.452;2023-08-08T15:49:34;23.50;71.80
21805;DHT22;11064;47.102;15.452;2023-08-08T15:52:00;23.50;73.20
21805;DHT22;11064;47.102;15.452;2023-08-08T15:54:26;23.20;72.70
21805;DHT22;11064;47.102;15.452;2023-08-08T15:56:52;23.10;74.20
21805;DHT22;11064;47.102;15.452;2023-08-08T15:59:18;22.90;75.30
21805;DHT22;11064;47.102;15.452;2023-08-08T16:01:44;22.90;74.10
21805;DHT22;11064;47.102;15.452;2023-08-08T16:04:10;22.70;76.60
21805;DHT22;11064;47.102;15.452;2023-08-08T16:06:36;22.90;78.00
21805;DHT22;11064;47.102;15.452;2023-08-08T16:09:03;23.10;77.10
21805;DHT22;11064;47.102;15.452;2023-08-08T16:11:29;23.10;76.00
21805;DHT22;11064;47.102;15.452;2023-08-08T16:13:54;22.90;75.60
21805;DHT22;11064;47.102;15.452;2023-08-08T16:16:20;22.70;76.50
21805;DHT22;11064;47.102;15.452;2023-08-08T16:18:46;22.60;77.50
21805;DHT22;11064;47.102;15.452;2023-08-08T16:21:12;22.40;77.80
21805;DHT22;11064;47.102;15.452;2023-08-08T16:23:38;22.30;77.90
21805;DHT22;11064;47.102;15.452;2023-08-08T16:26:04;22.30;78.30
21805;DHT22;11064;47.102;15.452;2023-08-08T16:28:30;22.20;77.10
21805;DHT22;11064;47.102;15.452;2023-08-08T16:30:56;22.00;78.70
21805;DHT22;11064;47.102;15.452;2023-08-08T16:33:22;21.90;78.90
21805;DHT22;11064;47.102;15.452;2023-08-08T16:35:48;21.80;80.00
21805;DHT22;11064;47.102;15.452;2023-08-08T16:38:14;21.60;82.10
21805;DHT22;11064;47.102;15.452;2023-08-08T16:40:40;21.40;82.70
21805;DHT22;11064;47.102;15.452;2023-08-08T16:43:06;21.30;83.00
21805;DHT22;11064;47.102;15.452;2023-08-08T16:45:32;21.10;82.70
21805;DHT22;11064;47.102;15.452;2023-08-08T16:47:57;20.80;84.00
21805;DHT22;11064;47.102;15.452;2023-08-08T16:50:23;20.50;84.90
21805;DHT22;11064;47.102;15.452;2023-08-08T16:52:49;20.40;86.50
21805;DHT22;11064;47.102;15.452;2023-08-08T16:55:15;20.10;87.70
21805;DHT22;11064;47.102;15.452;2023-08-08T16:57:41;19.90;89.10
21805;DHT22;11064;47.102;15.452;2023-08-08T17:00:07;19.80;90.00
21805;DHT22;11064;47.102;15.452;2023-08-08T17:02:36;19.70;90.20
21805;DHT22;11064;47.102;15.452;2023-08-08T17:05:03;19.50;90.90
21805;DHT22;11064;47.102;15.452;2023-08-08T17:07:30;19.30;91.30
21805;DHT22;11064;47.102;15.452;2023-08-08T17:09:57;19.10;92.10
21805;DHT22;11064;47.102;15.452;2023-08-08T17:12:23;18.90;92.40
21805;DHT22;11064;47.102;15.452;2023-08-08T17:14:50;18.70;93.00
21805;DHT22;11064;47.102;15.452;2023-08-08T17:17:17;18.60;93.80
21805;DHT22;11064;47.102;15.452;2023-08-08T17:19:43;18.40;94.40
21805;DHT22;11064;47.102;15.452;2023-08-08T17:22:09;18.20;95.30
21805;DHT22;11064;47.102;15.452;2023-08-08T17:24:35;18.00;96.60
21805;DHT22;11064;47.102;15.452;2023-08-08T17:27:01;17.90;97.30
21805;DHT22;11064;47.102;15.452;2023-08-08T17:29:27;17.80;99.90
21805;DHT22;11064;47.102;15.452;2023-08-08T17:31:54;17.60;99.90
21805;DHT22;11064;47.102;15.452;2023-08-08T17:34:20;17.50;99.90
21805;DHT22;11064;47.102;15.452;2023-08-08T17:36:46;17.50;99.90
21805;DHT22;11064;47.102;15.452;2023-08-08T17:39:14;17.40;99.90
21805;DHT22;11064;47.102;15.452;2023-08-08T17:41:40;17.30;99.90
21805;DHT22;11064;47.102;15.452;2023-08-08T17:44:06;17.30;99.90
21805;DHT22;11064;47.102;15.452;2023-08-08T17:46:32;17.30;99.90
21805;DHT22;11064;47.102;15.452;2023-08-08T17:48:59;17.30;99.90
21805;DHT22;11064;47.102;15.452;2023-08-08T17:51:25;17.30;99.90
21805;DHT22;11064;47.102;15.452;2023-08-08T17:53:51;17.20;99.90
21805;DHT22;11064;47.102;15.452;2023-08-08T17:56:17;17.20;99.90
21805;DHT22;11064;47.102;15.452;2023-08-08T17:58:42;17.10;99.90
21805;DHT22;11064;47.102;15.452;2023-08-08T18:01:13;17.00;99.90
21805;DHT22;11064;47.102;15.452;2023-08-08T18:03:39;17.00;99.90
21805;DHT22;11064;47.102;15.452;2023-08-08T18:06:06;16.90;99.90
21805;DHT22;11064;47.102;15.452;2023-08-08T18:08:32;16.80;99.90
21805;DHT22;11064;47.102;15.452;2023-08-08T18:11:02;16.70;99.90
21805;DHT22;11064;47.102;15.452;2023-08-08T18:13:28;16.70;99.90
21805;DHT22;11064;47.102;15.452;2023-08-08T18:15:54;16.60;99.90
21805;DHT22;11064;47.102;15.452;2023-08-08T18:18:22;16.70;99.90
21805;DHT22;11064;47.102;15.452;2023-08-08T18:20:51;16.70;99.90
21805;DHT22;11064;47.102;15.452;2023-08-08T18:23:18;16.60;99.90
21805;DHT22;11064;47.102;15.452;2023-08-08T18:25:45;16.50;99.90
21805;DHT22;11064;47.102;15.452;2023-08-08T18:28:13;16.40;99.90
21805;DHT22;11064;47.102;15.452;2023-08-08T18:30:43;16.40;99.90
21805;DHT22;11064;47.102;15.452;2023-08-08T18:33:15;16.50;99.90
21805;DHT22;11064;47.102;15.452;2023-08-08T18:35:41;16.40;99.90
21805;DHT22;11064;47.102;15.452;2023-08-08T18:38:08;16.40;99.90
21805;DHT22;11064;47.102;15.452;2023-08-08T18:40:36;16.30;99.90
21805;DHT22;11064;47.102;15.452;2023-08-08T18:43:03;16.20;99.90
21805;DHT22;11064;47.102;15.452;2023-08-08T18:45:29;16.40;99.90
21805;DHT22;11064;47.102;15.452;2023-08-08T18:47:55;16.60;99.90
21805;DHT22;11064;47.102;15.452;2023-08-08T18:50:27;16.70;99.90
21805;DHT22;11064;47.102;15.452;2023-08-08T18:52:54;16.80;99.90
21805;DHT22;11064;47.102;15.452;2023-08-08T18:55:20;16.80;99.90
21805;DHT22;11064;47.102;15.452;2023-08-08T18:57:46;16.70;99.90
21805;DHT22;11064;47.102;15.452;2023-08-08T19:00:15;16.70;99.90
21805;DHT22;11064;47.102;15.452;2023-08-08T19:02:41;16.60;99.90
21805;DHT22;11064;47.102;15.452;2023-08-08T19:05:08;16.50;99.90
21805;DHT22;11064;47.102;15.452;2023-08-08T19:07:34;16.30;99.90
21805;DHT22;11064;47.102;15.452;2023-08-08T19:10:00;16.40;99.90
21805;DHT22;11064;47.102;15.452;2023-08-08T19:12:27;16.40;99.90
21805;DHT22;11064;47.102;15.452;2023-08-08T19:14:53;16.40;99.90
21805;DHT22;11064;47.102;15.452;2023-08-08T19:17:20;16.40;99.90